Impacts TAF Board
For situational awareness. Not to be used for flight planning purposes.
IDs:

KBWI - Baltimore-Washington, MD, US

Issued at 1722 UTC 20 Jan 2019
Updated at 1727 UTC 20 Jan 2019
Potential Impact None Slight Moderate High
Time1654Z 20/18Z 20/19Z 20/20Z 20/21Z 20/22Z 20/23Z 21/00Z 21/01Z 21/02Z 21/03Z 21/04Z 21/05Z 21/06Z>>
Type OBS PRVL PRVL PRVL PRVL PRVL PRVL PRVL PRVL PRVL PRVL PRVL PRVL PRVL
VIS 10 >6 >6 >6 >6 >6 >6 >6 >6 >6 >6 >6 >6 >6
CIG 28 35 35 100 100 -- -- -- -- -- -- -- -- --
Cover OVC BKN BKN BKN BKN SCT SCT SCT SCT SCT SCT SCT SCT SCT
FltCat MVFR VFR VFR VFR VFR VFR VFR VFR VFR VFR VFR VFR VFR VFR
WX -- -- -- -- -- -- -- -- -- -- -- -- -- --
WDir 300 320 320 310 310 310 310 310 310 310 310 310 310 310
WSpd 21 20 20 20 20 19 19 19 19 19 19 19 19 19
WGst 34 40 40 40 40 34 34 34 34 34 34 34 34 34
Raw TAF
KBWI 201722Z 2018/2124 32020G40KT P6SM BKN035
  FM202000 31020G40KT P6SM SCT040 BKN100
  FM202200 31019G34KT P6SM SCT040
  FM212100 30012G19KT P6SM SKC


Raw METAR
KBWI 201654Z 30021G34KT 10SM BKN028 OVC085 03/M02 A2948 RMK AO2 PK WND 29039/1643 SLP982 T00281022
KBWI 201554Z 29022G32KT 10SM BKN025 BKN032 OVC085 05/02 A2945 RMK AO2 PK WND 28032/1552 SLP972 T00500017
KBWI 201511Z 28020G30KT 10SM FEW019 BKN090 OVC100 05/02 A2941 RMK AO2 PK WND 30030/1457 PRESRR T00500022
KBWI 201454Z 29020G31KT 10SM BKN019 OVC085 05/03 A2939 RMK AO2 PK WND 29032/1431 SLP953 60002 T00500028 53032

METAR Board
Radar Display
Forecast Discussion
For situational awareness. Not to be used for flight planning purposes.